createdAt,value
2018-08-21T00:00:43.989Z,69.32
2018-08-21T00:01:44.176Z,69.13
2018-08-21T00:02:44.612Z,69.03
2018-08-21T00:03:44.096Z,69.23
2018-08-21T00:04:44.712Z,69.03
2018-08-21T00:05:44.220Z,68.84
2018-08-21T00:06:44.259Z,69.03
2018-08-21T00:07:44.312Z,69.13
2018-08-21T00:08:44.363Z,69.23
2018-08-21T00:09:44.940Z,68.74
2018-08-21T00:10:44.434Z,69.03
2018-08-21T00:11:44.735Z,69.71
2018-08-21T00:12:44.542Z,69.42
2018-08-21T00:13:44.591Z,68.93
2018-08-21T00:14:45.167Z,69.13
2018-08-21T00:15:44.688Z,69.42
2018-08-21T00:16:44.704Z,69.13
2018-08-21T00:17:45.476Z,68.93
2018-08-21T00:18:44.814Z,69.80
2018-08-21T00:19:44.865Z,69.61
2018-08-21T00:20:44.950Z,70.73
2018-08-21T00:21:44.946Z,70.54
2018-08-21T00:22:45.009Z,71.02
2018-08-21T00:23:45.187Z,70.83
2018-08-21T00:24:45.094Z,70.54
2018-08-21T00:25:45.128Z,70.54
2018-08-21T00:26:45.183Z,70.73
2018-08-21T00:27:45.215Z,70.44
2018-08-21T00:28:45.283Z,70.83
2018-08-21T00:29:45.312Z,71.02
2018-08-21T00:30:45.374Z,70.92
2018-08-21T00:31:45.415Z,69.19
2018-08-21T00:32:45.450Z,70.64
2018-08-21T00:33:45.554Z,70.35
2018-08-21T00:34:45.686Z,70.15
2018-08-21T00:35:45.629Z,70.44
2018-08-21T00:36:45.627Z,70.54
2018-08-21T00:37:45.689Z,71.12
2018-08-21T00:38:45.715Z,71.79
2018-08-21T00:39:45.793Z,72.08
2018-08-21T00:40:45.801Z,71.89
2018-08-21T00:41:45.961Z,73.01
2018-08-21T00:42:45.920Z,72.91
2018-08-21T00:43:45.957Z,73.49
2018-08-21T00:44:46.047Z,73.10
2018-08-21T00:45:46.059Z,73.49
2018-08-21T00:46:46.099Z,73.49
2018-08-21T00:47:46.143Z,73.88
2018-08-21T00:48:46.199Z,74.16
2018-08-21T00:49:46.233Z,74.36
2018-08-21T00:50:46.321Z,74.36
2018-08-21T00:51:46.345Z,74.07
2018-08-21T00:52:46.382Z,74.45
2018-08-21T00:53:46.444Z,74.74
2018-08-21T00:54:46.450Z,74.74
2018-08-21T00:55:46.524Z,74.71
2018-08-21T00:56:46.541Z,74.41
2018-08-21T00:57:46.696Z,74.51
2018-08-21T00:58:46.653Z,74.80
2018-08-21T00:59:46.748Z,74.61
2018-08-21T01:00:46.738Z,75.42
2018-08-21T01:01:46.790Z,74.84
2018-08-21T01:02:46.835Z,74.65
2018-08-21T01:03:46.884Z,74.80
2018-08-21T01:04:47.075Z,74.99
2018-08-21T01:05:46.986Z,75.57
2018-08-21T01:06:47.003Z,76.06
2018-08-21T01:07:47.036Z,76.06
2018-08-21T01:08:47.150Z,75.67
2018-08-21T01:09:47.145Z,76.92
2018-08-21T01:10:47.185Z,77.01
2018-08-21T01:11:47.244Z,76.92
2018-08-21T01:12:47.311Z,76.92
2018-08-21T01:13:47.329Z,77.31
2018-08-21T01:14:47.458Z,76.63
2018-08-21T01:15:47.468Z,76.34
2018-08-21T01:16:47.472Z,76.25
2018-08-21T01:17:47.514Z,76.44
2018-08-21T01:18:47.563Z,76.15
2018-08-21T01:19:47.609Z,76.34
2018-08-21T01:20:47.801Z,76.44
2018-08-21T01:21:47.689Z,76.92
2018-08-21T01:22:47.751Z,76.92
2018-08-21T01:23:47.808Z,76.82
2018-08-21T01:24:47.828Z,77.40
2018-08-21T01:25:47.904Z,77.01
2018-08-21T01:26:48.088Z,77.01
2018-08-21T01:27:47.980Z,77.88
2018-08-21T01:28:48.009Z,78.08
2018-08-21T01:29:48.070Z,77.21
2018-08-21T01:30:48.096Z,77.78
2018-08-21T01:31:48.165Z,77.40
2018-08-21T01:32:48.215Z,77.40
2018-08-21T01:33:48.259Z,77.59
2018-08-21T01:34:48.281Z,76.92
2018-08-21T01:35:48.363Z,77.01
2018-08-21T01:36:48.393Z,77.50
2018-08-21T01:37:48.528Z,77.31
2018-08-21T01:38:48.501Z,78.08
2018-08-21T01:39:48.523Z,78.08
2018-08-21T01:40:48.565Z,77.78
2018-08-21T01:41:48.633Z,79.03
2018-08-21T01:42:48.667Z,79.61
2018-08-21T01:43:48.738Z,80.38
2018-08-21T01:44:48.881Z,81.63
2018-08-21T01:45:48.817Z,82.50
2018-08-21T01:46:48.853Z,82.89
2018-08-21T01:47:48.887Z,83.75
2018-08-21T01:48:48.940Z,83.14
2018-08-21T01:49:48.987Z,83.23
2018-08-21T01:50:49.104Z,83.08
2018-08-21T01:51:49.077Z,82.94
2018-08-21T01:52:49.116Z,83.42
2018-08-21T01:53:49.201Z,83.04
2018-08-21T01:54:49.211Z,83.81
2018-08-21T01:55:49.246Z,83.62
2018-08-21T01:56:49.381Z,84.10
2018-08-21T01:57:49.382Z,84.14
2018-08-21T01:58:49.396Z,84.00
2018-08-21T01:59:49.442Z,84.33
2018-08-21T02:00:49.470Z,84.97
2018-08-21T02:01:49.636Z,85.16
2018-08-21T02:02:49.818Z,85.78
2018-08-21T02:03:49.668Z,85.35
2018-08-21T02:04:49.654Z,85.44
2018-08-21T02:05:49.768Z,86.02
2018-08-21T02:06:49.809Z,86.41
2018-08-21T02:07:49.880Z,86.60
2018-08-21T02:08:49.853Z,87.18
2018-08-21T02:09:49.946Z,87.46
2018-08-21T02:10:49.931Z,87.37
2018-08-21T02:11:50.037Z,88.53
2018-08-21T02:12:50.278Z,88.33
2018-08-21T02:13:50.151Z,88.33
2018-08-21T02:14:50.127Z,88.33
2018-08-21T02:15:50.155Z,88.67
2018-08-21T02:16:50.272Z,88.62
2018-08-21T02:17:50.364Z,88.62
2018-08-21T02:18:50.306Z,88.14
2018-08-21T02:19:50.428Z,88.71
2018-08-21T02:20:50.409Z,88.48
2018-08-21T02:21:50.437Z,88.57
2018-08-21T02:22:50.709Z,88.87
2018-08-21T02:23:50.636Z,89.15
2018-08-21T02:24:50.570Z,89.64
2018-08-21T02:25:50.678Z,89.35
2018-08-21T02:26:50.716Z,90.12
2018-08-21T02:27:50.843Z,90.50
2018-08-21T02:28:51.019Z,90.50
2018-08-21T02:29:50.828Z,90.21
2018-08-21T02:30:50.902Z,90.50
2018-08-21T02:31:50.890Z,91.17
2018-08-21T02:32:50.964Z,91.46
2018-08-21T02:33:51.095Z,91.75
2018-08-21T02:34:51.027Z,91.94
2018-08-21T02:35:51.158Z,91.94
2018-08-21T02:36:51.112Z,91.46
2018-08-21T02:37:51.149Z,92.86
2018-08-21T02:38:51.259Z,92.86
2018-08-21T02:39:51.292Z,92.38
2018-08-21T02:40:51.286Z,92.86
2018-08-21T02:41:51.312Z,93.34
2018-08-21T02:42:51.374Z,92.86
2018-08-21T02:43:51.576Z,92.96
2018-08-21T02:44:51.563Z,92.96
2018-08-21T02:45:51.533Z,93.53
2018-08-21T02:46:51.541Z,93.44
2018-08-21T02:47:51.637Z,93.24
2018-08-21T02:48:51.643Z,94.21
2018-08-21T02:49:51.734Z,94.30
2018-08-21T02:50:51.743Z,94.49
2018-08-21T02:51:51.848Z,94.49
2018-08-21T02:52:51.827Z,94.78
2018-08-21T02:53:51.857Z,94.78
2018-08-21T02:54:52.010Z,95.07
2018-08-21T02:55:51.949Z,95.45
2018-08-21T02:56:52.039Z,94.98
2018-08-21T02:57:52.045Z,95.26
2018-08-21T02:58:52.111Z,95.40
2018-08-21T02:59:52.172Z,95.45
2018-08-21T03:00:52.330Z,95.12
2018-08-21T03:01:52.245Z,94.93
2018-08-21T03:02:52.263Z,94.54
2018-08-21T03:03:52.315Z,93.91
2018-08-21T03:04:52.348Z,92.96
2018-08-21T03:05:52.387Z,91.99
2018-08-21T03:07:52.506Z,93.34
2018-08-21T03:08:52.527Z,91.52
2018-08-21T03:09:52.582Z,89.98
2018-08-21T03:10:52.630Z,90.17
2018-08-21T03:11:52.726Z,89.98
2018-08-21T03:13:52.775Z,89.88
2018-08-21T03:14:52.819Z,88.73
2018-08-21T03:15:52.905Z,88.63
2018-08-21T03:16:53.040Z,88.44
2018-08-21T03:17:52.937Z,88.63
2018-08-21T03:19:53.038Z,91.32
2018-08-21T03:20:53.082Z,90.26
2018-08-21T03:21:53.105Z,89.50
2018-08-21T03:22:53.166Z,89.40
2018-08-21T03:23:53.189Z,89.30
2018-08-21T03:24:53.258Z,89.01
2018-08-21T03:25:53.345Z,88.53
2018-08-21T03:26:53.328Z,88.63
2018-08-21T03:27:53.426Z,88.82
2018-08-21T03:28:53.441Z,89.11
2018-08-21T03:29:53.506Z,89.01
2018-08-21T03:30:53.538Z,88.82
2018-08-21T03:31:53.568Z,89.50
2018-08-21T03:32:53.645Z,88.97
2018-08-21T03:33:53.650Z,88.78
2018-08-21T03:35:53.749Z,90.41
2018-08-21T03:36:53.781Z,90.22
2018-08-21T03:37:53.833Z,90.51
2018-08-21T03:38:53.878Z,92.72
2018-08-21T03:39:54.070Z,93.01
2018-08-21T03:40:53.950Z,93.49
2018-08-21T03:41:54.026Z,94.26
2018-08-21T03:42:54.060Z,94.73
2018-08-21T03:43:54.102Z,95.21
2018-08-21T03:45:55.835Z,97.24
2018-08-21T03:46:54.238Z,97.24
2018-08-21T03:47:54.260Z,97.52
2018-08-21T03:48:54.360Z,97.42
2018-08-21T03:49:54.363Z,98.68
2018-08-21T03:50:54.420Z,98.68
2018-08-21T03:51:54.590Z,98.72
2018-08-21T03:52:54.491Z,99.30
2018-08-21T03:53:54.571Z,99.49
2018-08-21T03:54:54.588Z,99.58
2018-08-21T03:55:54.674Z,99.58
2018-08-21T03:56:54.668Z,99.99
2018-08-21T03:58:54.929Z,99.99
2018-08-21T03:59:54.822Z,99.99
2018-08-21T04:00:54.833Z,99.99
2018-08-21T04:02:54.932Z,99.99
2018-08-21T04:03:55.037Z,99.99
2018-08-21T04:04:55.060Z,99.99
2018-08-21T04:07:55.149Z,99.99
2018-08-21T04:08:55.337Z,99.99
2018-08-21T04:09:55.260Z,99.99
2018-08-21T04:10:55.306Z,99.99
2018-08-21T04:11:55.339Z,99.99
2018-08-21T04:12:55.354Z,99.99
2018-08-21T04:14:55.477Z,99.99
2018-08-21T04:15:55.508Z,99.99
2018-08-21T04:16:55.553Z,99.99
2018-08-21T04:17:55.580Z,99.99
2018-08-21T04:18:55.673Z,99.99
2018-08-21T04:19:55.695Z,99.99
2018-08-21T04:20:55.895Z,99.99
2018-08-21T04:21:55.788Z,99.99
2018-08-21T04:23:55.845Z,99.99
2018-08-21T04:24:55.919Z,99.99
2018-08-21T04:25:55.948Z,99.99
2018-08-21T04:26:56.158Z,99.99
2018-08-21T04:27:56.061Z,99.99
2018-08-21T04:28:56.079Z,99.99
2018-08-21T04:29:56.122Z,99.99
2018-08-21T04:30:56.178Z,99.99
2018-08-21T04:32:56.314Z,99.99
2018-08-21T04:33:56.313Z,99.99
2018-08-21T04:34:56.357Z,99.99
2018-08-21T04:35:56.398Z,99.99
2018-08-21T04:36:56.451Z,99.99
2018-08-21T04:37:56.515Z,99.99
2018-08-21T04:38:56.529Z,99.99
2018-08-21T04:39:56.567Z,99.99
2018-08-21T04:41:56.673Z,99.99
2018-08-21T04:43:56.748Z,99.44
2018-08-21T04:44:56.791Z,99.44
2018-08-21T04:45:56.820Z,99.15
2018-08-21T04:46:56.892Z,98.48
2018-08-21T04:47:58.723Z,98.19
2018-08-21T04:48:58.633Z,97.33
2018-08-21T04:50:57.065Z,97.24
2018-08-21T04:51:57.100Z,96.75
2018-08-21T04:53:57.205Z,95.03
2018-08-21T04:54:57.391Z,95.21
2018-08-21T04:55:57.290Z,94.74
2018-08-21T04:56:57.340Z,94.54
2018-08-21T04:57:57.371Z,94.74
2018-08-21T04:58:57.442Z,94.64
2018-08-21T04:59:57.429Z,94.35
2018-08-21T05:00:57.484Z,94.26
2018-08-21T05:01:57.543Z,94.07
2018-08-21T05:03:57.641Z,94.35
2018-08-21T05:04:57.820Z,93.97
2018-08-21T05:05:59.221Z,94.26
2018-08-21T05:06:57.754Z,93.97
2018-08-21T05:07:57.845Z,94.35
2018-08-21T05:08:57.874Z,95.60
2018-08-21T05:09:57.881Z,96.27
2018-08-21T05:10:57.938Z,96.85
2018-08-21T05:12:58.031Z,98.38
2018-08-21T05:13:58.056Z,98.86
2018-08-21T05:14:58.090Z,99.73
2018-08-21T05:16:58.194Z,99.99
2018-08-21T05:17:58.413Z,99.99
2018-08-21T05:19:58.408Z,99.99
2018-08-21T05:45:59.453Z,99.99
2018-08-21T05:46:59.482Z,99.99
2018-08-21T05:47:59.538Z,99.99
2018-08-21T05:49:59.621Z,99.99
2018-08-21T05:50:59.700Z,99.99
2018-08-21T05:51:59.708Z,99.99
2018-08-21T05:52:59.761Z,99.99
2018-08-21T05:53:59.805Z,99.99
2018-08-21T05:54:59.840Z,99.99
2018-08-21T05:56:00.048Z,99.99
2018-08-21T05:57:01.536Z,99.99
2018-08-21T05:57:59.968Z,99.99
2018-08-21T05:59:00.060Z,99.99
2018-08-21T06:00:00.065Z,99.99
2018-08-21T06:02:00.180Z,99.99
2018-08-21T06:03:00.327Z,99.99
2018-08-21T06:04:00.382Z,99.73
2018-08-21T06:05:00.274Z,98.67
2018-08-21T06:06:00.331Z,99.44
2018-08-21T06:07:00.352Z,99.34
2018-08-21T06:08:00.506Z,99.63
2018-08-21T06:10:00.596Z,99.99
2018-08-21T06:11:00.544Z,99.99
2018-08-21T06:13:00.605Z,99.99
2018-08-21T06:14:00.715Z,99.87
2018-08-21T06:15:00.839Z,98.24
2018-08-21T06:16:00.796Z,98.14
2018-08-21T06:17:00.811Z,97.28
2018-08-21T06:18:00.864Z,97.56
2018-08-21T06:19:00.929Z,96.89
2018-08-21T06:20:00.933Z,96.89
2018-08-21T06:21:01.124Z,96.99
2018-08-21T06:22:01.169Z,96.89
2018-08-21T06:23:01.071Z,97.19
2018-08-21T06:25:01.159Z,96.03
2018-08-21T06:26:01.194Z,95.94
2018-08-21T06:27:01.401Z,95.70
2018-08-21T06:28:01.265Z,96.18
2018-08-21T06:29:01.316Z,96.22
2018-08-21T06:31:01.424Z,96.27
2018-08-21T06:32:01.615Z,94.93
2018-08-21T06:33:01.501Z,95.31
2018-08-21T06:34:01.700Z,95.12
2018-08-21T06:35:01.600Z,95.12
2018-08-21T06:36:01.684Z,95.31
2018-08-21T06:37:01.659Z,95.21
2018-08-21T06:38:01.703Z,95.31
2018-08-21T06:39:03.257Z,95.31
2018-08-21T06:40:01.805Z,94.93
2018-08-21T06:41:01.861Z,95.21
2018-08-21T06:42:01.897Z,94.93
2018-08-21T06:43:01.902Z,95.12
2018-08-21T06:44:02.013Z,95.12
2018-08-21T06:45:02.155Z,95.41
2018-08-21T06:46:02.057Z,95.70
2018-08-21T06:47:02.100Z,95.12
2018-08-21T06:48:02.134Z,95.12
2018-08-21T06:49:02.181Z,95.12
2018-08-21T06:50:02.207Z,95.31
2018-08-21T06:51:02.256Z,95.50
2018-08-21T06:52:02.318Z,95.89
2018-08-21T06:54:02.434Z,94.83
2018-08-21T06:55:02.444Z,95.70
2018-08-21T06:56:02.493Z,95.79
2018-08-21T06:58:02.569Z,95.84
2018-08-21T06:59:02.618Z,95.84
2018-08-21T07:00:02.864Z,96.13
2018-08-21T07:01:02.859Z,96.32
2018-08-21T07:02:02.738Z,95.46
2018-08-21T07:04:02.853Z,96.03
2018-08-21T07:05:02.923Z,95.94
2018-08-21T07:06:02.929Z,95.84
2018-08-21T07:08:03.024Z,95.46
2018-08-21T07:09:03.039Z,95.55
2018-08-21T07:10:03.084Z,95.75
2018-08-21T07:11:03.141Z,96.22
2018-08-21T07:13:03.275Z,96.42
2018-08-21T07:14:03.303Z,96.22
2018-08-21T07:15:03.278Z,96.32
2018-08-21T07:16:03.362Z,96.13
2018-08-21T07:18:03.443Z,96.22
2018-08-21T07:19:03.518Z,96.03
2018-08-21T07:20:03.530Z,95.94
2018-08-21T07:22:03.605Z,95.75
2018-08-21T07:23:03.698Z,96.03
2018-08-21T07:24:03.847Z,95.70
2018-08-21T07:25:03.733Z,95.03
2018-08-21T07:26:03.798Z,94.83
2018-08-21T07:27:03.809Z,95.21
2018-08-21T07:28:03.848Z,95.12
2018-08-21T07:29:03.970Z,94.93
2018-08-21T07:30:03.992Z,95.31
2018-08-21T07:32:04.047Z,94.83
2018-08-21T07:33:04.084Z,94.64
2018-08-21T07:34:04.111Z,95.31
2018-08-21T07:35:04.320Z,95.55
2018-08-21T07:36:04.220Z,95.60
2018-08-21T07:37:04.237Z,96.18
2018-08-21T07:38:04.298Z,95.65
2018-08-21T07:39:04.386Z,95.94
2018-08-21T07:40:04.366Z,95.89
2018-08-21T07:42:04.483Z,95.89
2018-08-21T07:43:04.525Z,95.60
2018-08-21T07:44:04.574Z,95.12
2018-08-21T07:45:04.594Z,94.83
2018-08-21T07:46:04.636Z,94.93
2018-08-21T07:47:06.295Z,95.31
2018-08-21T07:49:04.781Z,95.03
2018-08-21T07:51:04.879Z,95.31
2018-08-21T07:52:04.912Z,95.41
2018-08-21T07:54:04.974Z,94.93
2018-08-21T07:55:05.036Z,95.12
2018-08-21T07:56:05.065Z,95.31
2018-08-21T07:57:05.117Z,95.12
2018-08-21T07:58:05.235Z,95.21
2018-08-21T07:59:05.349Z,95.12
2018-08-21T08:00:05.244Z,95.31
2018-08-21T08:01:05.290Z,95.12
2018-08-21T08:02:05.344Z,95.12
2018-08-21T08:03:05.412Z,95.21
2018-08-21T08:04:05.765Z,95.03
2018-08-21T08:06:05.484Z,95.03
2018-08-21T08:07:05.543Z,95.21
2018-08-21T08:08:05.595Z,95.89
2018-08-21T08:09:05.702Z,95.70
2018-08-21T08:10:05.666Z,95.60
2018-08-21T08:11:05.871Z,95.89
2018-08-21T08:12:05.779Z,96.08
2018-08-21T08:13:05.810Z,96.18
2018-08-21T08:14:05.985Z,95.98
2018-08-21T08:15:05.901Z,96.18
2018-08-21T08:16:05.978Z,96.08
2018-08-21T08:17:07.674Z,96.47
2018-08-21T08:18:06.040Z,95.89
2018-08-21T08:19:06.205Z,95.70
2018-08-21T08:20:06.197Z,95.12
2018-08-21T08:21:06.158Z,95.89
2018-08-21T08:22:06.245Z,96.47
2018-08-21T08:23:06.318Z,95.60
2018-08-21T08:24:06.294Z,95.89
2018-08-21T08:25:06.316Z,95.89
2018-08-21T08:26:06.382Z,95.50
2018-08-21T08:27:06.454Z,95.21
2018-08-21T08:28:06.543Z,95.12
2018-08-21T08:29:06.600Z,95.70
2018-08-21T08:31:06.567Z,95.31
2018-08-21T08:32:06.628Z,95.31
2018-08-21T08:33:06.714Z,95.41
2018-08-21T08:34:06.722Z,95.31
2018-08-21T08:35:06.765Z,94.64
2018-08-21T08:36:06.799Z,94.74
2018-08-21T08:37:06.822Z,94.83
2018-08-21T08:41:07.015Z,95.03
2018-08-21T08:42:07.076Z,95.03
2018-08-21T08:44:07.173Z,95.03
2018-08-21T08:45:07.202Z,94.83
2018-08-21T08:46:07.248Z,95.03
2018-08-21T08:48:07.309Z,95.12
2018-08-21T08:49:07.410Z,95.31
2018-08-21T08:50:07.436Z,95.12
2018-08-21T08:51:07.454Z,95.21
2018-08-21T08:52:07.530Z,95.41
2018-08-21T08:54:07.579Z,95.70
2018-08-21T08:55:07.776Z,95.50
2018-08-21T08:56:07.706Z,95.50
2018-08-21T08:57:07.743Z,95.98
2018-08-21T08:58:07.746Z,96.27
2018-08-21T09:01:07.867Z,96.27
2018-08-21T09:03:07.963Z,96.27
2018-08-21T09:04:07.997Z,96.47
2018-08-21T09:05:08.151Z,96.85
2018-08-21T09:06:08.096Z,96.66
2018-08-21T09:07:08.120Z,96.85
2018-08-21T09:08:08.172Z,96.75
2018-08-21T09:09:08.218Z,96.85
2018-08-21T09:10:08.279Z,97.14
2018-08-21T09:11:08.304Z,97.86
2018-08-21T09:14:08.431Z,97.52
2018-08-21T09:15:08.484Z,97.91
2018-08-21T09:16:08.566Z,97.38
2018-08-21T09:17:08.569Z,97.52
2018-08-21T09:18:08.608Z,97.56
2018-08-21T09:19:08.652Z,98.33
2018-08-21T09:20:08.700Z,98.33
2018-08-21T09:21:08.737Z,98.19
2018-08-21T09:22:08.925Z,98.19
2018-08-21T09:23:08.823Z,97.81
2018-08-21T09:24:08.868Z,98.00
2018-08-21T09:25:08.947Z,98.48
2018-08-21T09:26:08.977Z,98.38
2018-08-21T09:27:08.999Z,98.29
2018-08-21T09:28:09.025Z,98.10
2018-08-21T09:29:09.084Z,98.19
2018-08-21T09:30:09.131Z,98.00
2018-08-21T09:32:09.216Z,98.43
2018-08-21T09:33:09.287Z,98.14
2018-08-21T09:36:09.374Z,98.48
2018-08-21T09:38:09.529Z,98.58
2018-08-21T09:39:09.492Z,98.38
2018-08-21T09:40:11.041Z,98.58
2018-08-21T09:41:09.590Z,98.77
2018-08-21T09:42:09.622Z,98.86
2018-08-21T09:44:09.707Z,99.05
2018-08-21T09:46:09.792Z,98.38
2018-08-21T09:47:09.847Z,98.58
2018-08-21T09:48:09.931Z,98.58
2018-08-21T09:49:09.916Z,98.38
2018-08-21T09:50:09.977Z,98.58
2018-08-21T09:51:10.099Z,97.91
2018-08-21T09:52:10.064Z,98.00
2018-08-21T09:53:10.126Z,98.00
2018-08-21T09:54:10.151Z,98.10
2018-08-21T09:56:10.228Z,97.42
2018-08-21T09:57:10.267Z,97.42
2018-08-21T10:00:10.413Z,96.80
2018-08-21T10:01:10.461Z,96.89
2018-08-21T10:02:10.639Z,96.61
2018-08-21T10:03:10.544Z,96.89
2018-08-21T10:04:10.615Z,96.51
2018-08-21T10:05:10.600Z,96.13
2018-08-21T10:06:10.657Z,96.89
2018-08-21T10:07:10.676Z,96.03
2018-08-21T10:09:10.796Z,96.32
2018-08-21T10:10:10.844Z,95.94
2018-08-21T10:11:10.884Z,96.32
2018-08-21T10:12:10.963Z,96.13
2018-08-21T10:13:10.968Z,95.60
2018-08-21T10:14:10.997Z,95.94
2018-08-21T10:15:11.056Z,95.40
2018-08-21T10:16:11.080Z,95.12
2018-08-21T10:17:11.134Z,95.31
2018-08-21T10:19:11.255Z,94.49
2018-08-21T10:20:11.277Z,93.53
2018-08-21T10:21:11.347Z,92.76
2018-08-21T10:22:11.334Z,91.94
2018-08-21T10:24:11.433Z,91.75
2018-08-21T10:25:13.146Z,91.94
2018-08-21T10:26:11.532Z,91.27
2018-08-21T10:27:11.567Z,91.27
2018-08-21T10:28:11.634Z,90.98
2018-08-21T10:29:11.672Z,91.75
2018-08-21T10:30:11.710Z,92.43
2018-08-21T10:33:11.889Z,93.15
2018-08-21T10:34:11.895Z,92.67
2018-08-21T10:35:11.979Z,92.57
2018-08-21T10:36:11.961Z,92.76
2018-08-21T10:37:12.031Z,93.15
2018-08-21T10:39:12.097Z,93.49
2018-08-21T10:40:12.159Z,94.64
2018-08-21T10:41:12.194Z,95.03
2018-08-21T10:42:12.234Z,95.40
2018-08-21T10:43:12.360Z,95.40
2018-08-21T10:44:12.383Z,95.89
2018-08-21T10:45:12.433Z,95.70
2018-08-21T10:46:12.433Z,95.98
2018-08-21T10:47:12.466Z,96.27
2018-08-21T10:48:12.520Z,96.22
2018-08-21T10:49:12.548Z,96.03
2018-08-21T10:50:12.611Z,96.17
2018-08-21T10:51:12.645Z,96.51
2018-08-21T10:52:12.677Z,96.42
2018-08-21T10:53:12.717Z,96.08
2018-08-21T10:55:12.817Z,93.29
2018-08-21T10:56:12.911Z,91.17
2018-08-21T10:57:12.911Z,89.09
2018-08-21T10:58:13.099Z,86.82
2018-08-21T10:59:13.000Z,85.77
2018-08-21T11:00:13.024Z,85.03
2018-08-21T11:01:13.090Z,83.53
2018-08-21T11:02:13.149Z,82.51
2018-08-21T11:03:13.324Z,81.68
2018-08-21T11:04:13.247Z,80.95
2018-08-21T11:06:13.311Z,78.87
2018-08-21T11:07:13.383Z,78.29
2018-08-21T11:08:13.428Z,77.65
2018-08-21T11:09:13.455Z,76.68
2018-08-21T11:10:13.642Z,76.33
2018-08-21T11:11:13.568Z,75.70
2018-08-21T11:12:13.599Z,75.31
2018-08-21T11:14:13.720Z,73.50
2018-08-21T11:15:15.428Z,72.92
2018-08-21T11:16:13.817Z,73.41
2018-08-21T11:17:13.866Z,73.02
2018-08-21T11:18:13.955Z,73.02
2018-08-21T11:19:13.966Z,72.67
2018-08-21T11:20:13.986Z,73.02
2018-08-21T11:21:14.106Z,73.41
2018-08-21T11:22:14.103Z,73.79
2018-08-21T11:23:14.159Z,72.63
2018-08-21T11:24:14.299Z,73.11
2018-08-21T11:25:14.259Z,72.53
2018-08-21T11:26:14.368Z,72.73
2018-08-21T11:27:14.366Z,72.63
2018-08-21T11:28:14.423Z,73.02
2018-08-21T11:29:14.469Z,72.92
2018-08-21T11:31:14.562Z,73.02
2018-08-21T11:33:16.260Z,72.38
2018-08-21T11:34:14.750Z,71.70
2018-08-21T11:35:14.765Z,71.06
2018-08-21T11:36:14.816Z,70.41
2018-08-21T11:37:14.859Z,69.83
2018-08-21T11:38:14.921Z,70.15
2018-08-21T11:39:14.960Z,68.18
2018-08-21T11:40:15.021Z,67.89
2018-08-21T11:42:15.113Z,66.56
2018-08-21T11:43:15.170Z,67.05
2018-08-21T11:44:15.223Z,66.76
2018-08-21T11:45:15.286Z,66.34
2018-08-21T11:46:15.318Z,66.56
2018-08-21T11:47:15.386Z,66.14
2018-08-21T11:48:15.494Z,65.56
2018-08-21T11:49:15.480Z,66.63
2018-08-21T11:50:15.558Z,66.66
2018-08-21T11:51:15.587Z,65.79
2018-08-21T11:52:15.617Z,66.08
2018-08-21T11:53:15.699Z,66.17
2018-08-21T11:54:15.759Z,65.95
2018-08-21T11:55:17.450Z,66.72
2018-08-21T11:56:15.854Z,66.08
2018-08-21T11:57:15.894Z,66.14
2018-08-21T11:58:15.960Z,64.20
2018-08-21T11:59:16.039Z,64.29
2018-08-21T12:00:16.070Z,65.30
2018-08-21T12:02:16.207Z,65.37
2018-08-21T12:03:16.243Z,64.78
2018-08-21T12:04:16.255Z,63.81
2018-08-21T12:05:16.329Z,65.11
2018-08-21T12:06:16.389Z,63.97
2018-08-21T12:07:18.105Z,62.74
2018-08-21T12:08:16.480Z,64.14
2018-08-21T12:09:16.555Z,65.17
2018-08-21T12:10:16.584Z,65.01
2018-08-21T12:12:16.703Z,64.62
2018-08-21T12:13:16.773Z,62.90
2018-08-21T12:14:16.821Z,63.62
2018-08-21T12:16:16.929Z,64.43
2018-08-21T12:17:16.966Z,65.56
2018-08-21T12:18:17.016Z,66.82
2018-08-21T12:19:17.113Z,64.85
2018-08-21T12:20:17.141Z,64.20
2018-08-21T12:22:17.241Z,62.41
2018-08-21T12:23:18.809Z,61.83
2018-08-21T12:24:17.362Z,61.96
2018-08-21T12:25:17.393Z,61.34
2018-08-21T12:26:17.496Z,61.99
2018-08-21T12:28:17.571Z,61.86
2018-08-21T12:29:17.782Z,60.88
2018-08-21T12:30:17.689Z,61.18
2018-08-21T12:31:17.749Z,60.42
2018-08-21T12:32:17.773Z,59.87
2018-08-21T12:33:17.842Z,60.16
2018-08-21T12:34:18.052Z,60.36
2018-08-21T12:35:17.954Z,59.15
2018-08-21T12:36:18.006Z,58.47
2018-08-21T12:37:18.070Z,57.78
2018-08-21T12:38:18.145Z,57.13
2018-08-21T12:39:18.158Z,57.42
2018-08-21T12:40:18.224Z,57.15
2018-08-21T12:41:19.833Z,56.60
2018-08-21T12:43:18.399Z,56.27
2018-08-21T12:44:18.453Z,56.05
2018-08-21T12:45:18.525Z,56.15
2018-08-21T12:46:18.569Z,57.89
2018-08-21T12:48:18.709Z,60.03
2018-08-21T12:49:18.723Z,59.16
2018-08-21T12:50:18.829Z,59.19
2018-08-21T12:52:18.899Z,59.91
2018-08-21T12:54:19.018Z,60.69
2018-08-21T12:55:19.063Z,60.30
2018-08-21T12:56:19.125Z,59.45
2018-08-21T12:57:19.202Z,60.06
2018-08-21T12:58:19.217Z,59.19
2018-08-21T12:59:19.263Z,58.44
2018-08-21T13:01:19.378Z,58.38
2018-08-21T13:02:19.481Z,60.30
2018-08-21T13:03:19.525Z,60.39
2018-08-21T13:04:19.597Z,61.50
2018-08-21T13:06:19.826Z,60.82
2018-08-21T13:07:19.764Z,60.16
2018-08-21T13:08:19.833Z,59.12
2018-08-21T13:09:19.828Z,58.11
2018-08-21T13:10:19.919Z,57.25
2018-08-21T13:11:19.990Z,57.13
2018-08-21T13:12:20.021Z,56.76
2018-08-21T13:14:20.088Z,56.58
2018-08-21T13:15:20.156Z,57.95
2018-08-21T13:16:20.229Z,57.29
2018-08-21T13:17:20.333Z,58.37
2018-08-21T13:18:20.339Z,56.90
2018-08-21T13:19:20.410Z,56.93
2018-08-21T13:20:20.467Z,56.58
2018-08-21T13:21:20.565Z,58.14
2018-08-21T13:22:20.563Z,57.39
2018-08-21T13:23:20.711Z,57.20
2018-08-21T13:24:20.820Z,57.59
2018-08-21T13:27:20.856Z,56.62
2018-08-21T13:28:20.960Z,54.44
2018-08-21T13:29:21.013Z,55.59
2018-08-21T13:30:21.037Z,56.18
2018-08-21T13:31:21.086Z,56.27
2018-08-21T13:34:21.287Z,56.08
2018-08-21T13:35:21.311Z,56.37
2018-08-21T13:36:21.378Z,56.35
2018-08-21T13:37:21.428Z,56.32
2018-08-21T13:38:21.492Z,56.32
2018-08-21T13:39:21.522Z,56.64
2018-08-21T13:40:21.587Z,56.05
2018-08-21T13:43:21.758Z,54.93
2018-08-21T13:44:21.843Z,54.44
2018-08-21T13:45:21.896Z,55.20
2018-08-21T13:46:21.949Z,54.74
2018-08-21T13:47:22.016Z,53.93
2018-08-21T13:48:22.249Z,55.00
2018-08-21T13:49:22.121Z,53.93
2018-08-21T13:50:22.170Z,53.86
2018-08-21T13:51:22.240Z,53.17
2018-08-21T13:52:22.306Z,53.47
2018-08-21T13:53:22.335Z,55.00
2018-08-21T13:54:22.416Z,54.93
2018-08-21T13:55:22.479Z,54.38
2018-08-21T13:56:22.514Z,53.78
2018-08-21T13:59:22.718Z,54.22
2018-08-21T14:01:22.798Z,54.83
2018-08-21T14:02:22.869Z,54.35
2018-08-21T14:03:22.910Z,53.37
2018-08-21T14:04:24.651Z,54.13
2018-08-21T14:05:23.048Z,55.10
2018-08-21T14:06:23.094Z,54.13
2018-08-21T14:07:23.156Z,55.10
2018-08-21T14:09:23.275Z,54.79
2018-08-21T14:10:23.485Z,54.71
2018-08-21T14:11:23.392Z,56.18
2018-08-21T14:12:23.435Z,55.32
2018-08-21T14:13:23.498Z,53.96
2018-08-21T14:16:23.662Z,52.81
2018-08-21T14:17:23.750Z,53.59
2018-08-21T14:19:23.874Z,52.25
2018-08-21T14:21:23.974Z,51.37
2018-08-21T14:22:24.183Z,52.44
2018-08-21T14:23:24.176Z,51.93
2018-08-21T14:24:24.151Z,52.83
2018-08-21T14:25:24.204Z,51.25
2018-08-21T14:26:24.305Z,52.44
2018-08-21T14:27:24.310Z,52.67
2018-08-21T14:28:24.532Z,52.08
2018-08-21T14:29:24.459Z,52.37
2018-08-21T14:30:24.553Z,51.88
2018-08-21T14:32:24.628Z,51.29
2018-08-21T14:33:26.332Z,51.42
2018-08-21T14:35:24.807Z,50.93
2018-08-21T14:36:24.844Z,49.53
2018-08-21T14:37:24.920Z,51.00
2018-08-21T14:38:24.973Z,51.20
2018-08-21T14:39:25.034Z,49.82
2018-08-21T14:41:25.153Z,51.22
2018-08-21T14:42:25.228Z,52.00
2018-08-21T14:44:25.347Z,51.54
2018-08-21T14:45:25.456Z,52.05
2018-08-21T14:47:25.609Z,51.37
2018-08-21T14:49:25.617Z,51.95
2018-08-21T14:50:25.720Z,51.46
2018-08-21T14:51:25.725Z,51.07
2018-08-21T14:52:27.295Z,51.00
2018-08-21T14:53:25.865Z,50.83
2018-08-21T14:55:26.012Z,51.15
2018-08-21T14:56:26.035Z,48.90
2018-08-21T14:57:26.120Z,49.11
2018-08-21T14:58:26.158Z,48.52
2018-08-21T14:59:26.263Z,48.33
2018-08-21T15:00:26.268Z,48.92
2018-08-21T15:01:26.394Z,47.47
2018-08-21T15:02:26.416Z,47.49
2018-08-21T15:03:26.517Z,47.89